createdAt,value
2019-02-25T00:00:00.307Z,14.67
2019-02-25T00:02:30.727Z,13.83
2019-02-25T00:04:57.427Z,13.57
2019-02-25T00:07:24.132Z,13.73
2019-02-25T00:09:50.844Z,14.50
2019-02-25T00:12:17.659Z,12.57
2019-02-25T00:14:44.595Z,13.07
2019-02-25T00:17:11.744Z,13.57
2019-02-25T00:19:38.455Z,13.10
2019-02-25T00:22:05.170Z,11.80
2019-02-25T00:24:31.875Z,13.43
2019-02-25T00:26:58.592Z,14.60
2019-02-25T00:29:25.290Z,15.00
2019-02-25T00:31:52.020Z,16.47
2019-02-25T00:34:18.723Z,14.27
2019-02-25T00:36:45.431Z,13.77
2019-02-25T00:39:12.139Z,12.97
2019-02-25T00:41:38.840Z,12.93
2019-02-25T00:44:05.543Z,13.20
2019-02-25T00:46:32.247Z,14.77
2019-02-25T00:48:58.963Z,12.53
2019-02-25T00:51:25.671Z,13.87
2019-02-25T00:53:52.411Z,15.43
2019-02-25T00:56:19.125Z,13.27
2019-02-25T00:58:45.827Z,13.17
2019-02-25T01:01:12.627Z,13.17
2019-02-25T01:03:39.356Z,14.77
2019-02-25T01:06:06.156Z,11.50
2019-02-25T01:08:32.861Z,13.33
2019-02-25T01:10:59.567Z,12.43
2019-02-25T01:13:26.272Z,11.60
2019-02-25T01:15:52.982Z,11.60
2019-02-25T01:18:19.778Z,12.50
2019-02-25T01:20:46.564Z,13.23
2019-02-25T01:23:13.263Z,14.90
2019-02-25T01:25:39.977Z,11.70
2019-02-25T01:28:06.695Z,13.43
2019-02-25T01:30:33.500Z,12.57
2019-02-25T01:33:00.211Z,13.87
2019-02-25T01:35:26.927Z,13.53
2019-02-25T01:37:53.643Z,13.60
2019-02-25T01:40:20.338Z,16.20
2019-02-25T01:42:47.142Z,12.67
2019-02-25T01:45:13.987Z,13.67
2019-02-25T01:47:40.896Z,12.60
2019-02-25T01:50:08.327Z,13.03
2019-02-25T01:52:35.041Z,12.43
2019-02-25T01:55:01.753Z,12.60
2019-02-25T01:57:28.489Z,13.27
2019-02-25T01:59:55.251Z,13.83
2019-02-25T02:02:21.959Z,11.83
2019-02-25T02:04:48.659Z,13.13
2019-02-25T02:07:15.368Z,14.63
2019-02-25T02:09:42.068Z,13.53
2019-02-25T02:12:08.863Z,11.73
2019-02-25T02:14:35.574Z,12.63
2019-02-25T02:17:02.486Z,13.13
2019-02-25T02:19:29.187Z,13.17
2019-02-25T02:21:55.928Z,14.90
2019-02-25T02:24:22.631Z,11.43
2019-02-25T02:26:49.328Z,13.17
2019-02-25T02:29:16.035Z,15.13
2019-02-25T02:31:42.740Z,12.50
2019-02-25T02:34:09.453Z,13.50
2019-02-25T02:36:36.155Z,13.47
2019-02-25T02:39:05.256Z,11.57
2019-02-25T02:42:10.196Z,14.17
2019-02-25T02:44:36.884Z,14.10
2019-02-25T02:47:28.071Z,12.83
2019-02-25T02:49:54.816Z,13.90
2019-02-25T02:52:21.525Z,13.23
2019-02-25T02:54:48.241Z,12.00
2019-02-25T02:57:14.939Z,16.30
2019-02-25T02:59:41.646Z,11.60
2019-02-25T03:02:08.464Z,13.17
2019-02-25T03:04:35.166Z,13.17
2019-02-25T03:07:01.872Z,14.83
2019-02-25T03:09:28.687Z,12.83
2019-02-25T03:11:55.395Z,12.97
2019-02-25T03:14:22.216Z,11.47
2019-02-25T03:16:48.934Z,12.93
2019-02-25T03:19:15.629Z,11.67
2019-02-25T03:21:42.332Z,14.33
2019-02-25T03:24:09.045Z,12.30
2019-02-25T03:26:35.743Z,13.13
2019-02-25T03:29:02.540Z,11.10
2019-02-25T03:31:29.263Z,14.13
2019-02-25T03:33:55.968Z,12.20
2019-02-25T03:36:22.660Z,12.10
2019-02-25T03:38:49.356Z,12.23
2019-02-25T03:41:16.072Z,11.03
2019-02-25T03:43:42.771Z,12.83
2019-02-25T03:46:09.472Z,12.60
2019-02-25T03:48:36.178Z,13.53
2019-02-25T03:51:02.877Z,12.37
2019-02-25T03:53:29.585Z,14.30
2019-02-25T03:55:56.480Z,12.83
2019-02-25T03:58:23.188Z,11.20
2019-02-25T04:00:49.900Z,14.20
2019-02-25T04:03:16.708Z,13.53
2019-02-25T04:05:43.420Z,13.33
2019-02-25T04:08:10.237Z,13.73
2019-02-25T04:10:36.972Z,12.37
2019-02-25T04:13:03.683Z,13.70
2019-02-25T04:15:34.326Z,15.30
2019-02-25T04:18:01.029Z,14.33
2019-02-25T04:20:27.820Z,13.67
2019-02-25T04:22:54.533Z,12.10
2019-02-25T04:25:21.241Z,11.68
2019-02-25T04:27:47.950Z,13.38
2019-02-25T04:30:15.105Z,13.43
2019-02-25T04:32:41.888Z,13.08
2019-02-25T04:35:09.377Z,13.78
2019-02-25T04:37:36.080Z,13.50
2019-02-25T04:40:04.495Z,12.03
2019-02-25T04:42:31.209Z,13.03
2019-02-25T04:44:57.917Z,13.00
2019-02-25T04:47:24.622Z,13.88
2019-02-25T04:49:51.331Z,15.25
2019-02-25T04:52:18.043Z,13.30
2019-02-25T04:54:44.754Z,11.80
2019-02-25T04:57:11.467Z,12.10
2019-02-25T04:59:38.477Z,15.00
2019-02-25T05:02:05.207Z,15.72
2019-02-25T05:04:32.012Z,14.03
2019-02-25T05:06:58.719Z,12.63
2019-02-25T05:09:25.449Z,13.38
2019-02-25T05:11:52.244Z,11.73
2019-02-25T05:14:18.957Z,12.50
2019-02-25T05:16:45.659Z,12.37
2019-02-25T05:19:12.372Z,12.15
2019-02-25T05:21:39.085Z,14.13
2019-02-25T05:24:05.789Z,14.33
2019-02-25T05:26:32.488Z,13.22
2019-02-25T05:28:59.199Z,12.43
2019-02-25T05:31:25.918Z,12.28
2019-02-25T05:33:52.628Z,16.40
2019-02-25T05:36:19.333Z,11.90
2019-02-25T05:38:46.084Z,12.25
2019-02-25T05:41:12.865Z,11.97
2019-02-25T05:43:39.583Z,14.95
2019-02-25T05:46:06.276Z,11.40
2019-02-25T05:48:33.203Z,12.58
2019-02-25T05:50:59.919Z,13.40
2019-02-25T05:53:26.616Z,12.05
2019-02-25T05:55:53.327Z,12.50
2019-02-25T05:58:20.024Z,13.72
2019-02-25T06:00:46.731Z,12.45
2019-02-25T06:03:13.441Z,12.78
2019-02-25T06:05:40.139Z,11.53
2019-02-25T06:08:06.839Z,13.50
2019-02-25T06:10:33.639Z,11.55
2019-02-25T06:13:00.332Z,12.40
2019-02-25T06:15:27.029Z,14.07
2019-02-25T06:17:53.732Z,12.58
2019-02-25T06:20:20.435Z,12.93
2019-02-25T06:22:47.144Z,11.40
2019-02-25T06:25:14.087Z,14.43
2019-02-25T06:27:40.858Z,13.60
2019-02-25T06:30:14.617Z,13.03
2019-02-25T06:32:41.330Z,12.53
2019-02-25T06:35:09.042Z,13.10
2019-02-25T06:37:35.735Z,13.00
2019-02-25T06:40:02.880Z,13.93
2019-02-25T06:42:29.585Z,14.40
2019-02-25T06:44:56.303Z,15.50
2019-02-25T06:47:23.011Z,13.60
2019-02-25T06:49:49.711Z,13.50
2019-02-25T06:52:16.419Z,17.00
2019-02-25T06:54:43.124Z,14.33
2019-02-25T06:57:09.839Z,12.68
2019-02-25T06:59:36.535Z,13.43
2019-02-25T07:02:03.255Z,17.32
2019-02-25T07:04:37.379Z,15.23
2019-02-25T07:07:10.377Z,12.03
2019-02-25T07:09:47.668Z,13.15
2019-02-25T07:12:19.632Z,13.83
2019-02-25T07:15:05.744Z,12.85
2019-02-25T07:17:39.727Z,17.40
2019-02-25T07:20:16.062Z,14.23
2019-02-25T07:23:05.095Z,12.85
2019-02-25T07:25:50.144Z,12.35
2019-02-25T07:28:33.692Z,13.05
2019-02-25T07:31:16.902Z,12.93
2019-02-25T07:33:53.565Z,14.03
2019-02-25T07:36:31.683Z,13.05
2019-02-25T07:39:09.576Z,12.75
2019-02-25T07:41:54.763Z,15.08
2019-02-25T07:44:38.084Z,13.18
2019-02-25T07:47:12.346Z,12.85
2019-02-25T07:49:45.907Z,11.60
2019-02-25T07:52:35.120Z,11.85
2019-02-25T07:55:21.600Z,11.45
2019-02-25T07:58:10.951Z,12.45
2019-02-25T08:01:00.680Z,12.68
2019-02-25T08:03:35.875Z,11.63
2019-02-25T08:06:20.655Z,13.18
2019-02-25T08:09:07.999Z,14.33
2019-02-25T08:11:42.876Z,9.88
2019-02-25T08:14:15.039Z,13.75
2019-02-25T08:16:47.727Z,11.48
2019-02-25T08:19:21.447Z,13.37
2019-02-25T08:21:58.259Z,14.67
2019-02-25T08:24:43.286Z,11.37
2019-02-25T08:27:26.904Z,12.60
2019-02-25T08:32:56.364Z,11.63
2019-02-25T08:36:26.592Z,14.77
2019-02-25T08:39:04.035Z,12.03
2019-02-25T08:41:53.359Z,11.50
2019-02-25T08:44:27.644Z,12.70
2019-02-25T08:47:14.348Z,11.83
2019-02-25T08:49:53.273Z,12.53
2019-02-25T08:52:19.978Z,13.30
2019-02-25T08:54:46.894Z,10.93
2019-02-25T08:57:13.596Z,12.20
2019-02-25T08:59:40.303Z,11.77
2019-02-25T09:02:07.135Z,11.93
2019-02-25T09:04:33.845Z,15.33
2019-02-25T09:07:00.539Z,11.33
2019-02-25T09:09:27.243Z,12.97
2019-02-25T09:11:53.952Z,12.33
2019-02-25T09:14:20.915Z,11.47
2019-02-25T09:16:47.618Z,11.53
2019-02-25T09:19:14.684Z,12.77
2019-02-25T09:21:41.652Z,10.97
2019-02-25T09:24:08.338Z,10.53
2019-02-25T09:26:35.056Z,10.87
2019-02-25T09:29:02.055Z,11.20
2019-02-25T09:31:28.766Z,10.37
2019-02-25T09:33:55.475Z,11.40
2019-02-25T09:36:22.201Z,10.10
2019-02-25T09:38:48.913Z,9.10
2019-02-25T09:41:15.619Z,12.33
2019-02-25T09:43:42.329Z,10.30
2019-02-25T09:46:09.046Z,9.00
2019-02-25T09:48:35.759Z,8.83
2019-02-25T09:51:02.479Z,8.97
2019-02-25T09:53:29.188Z,18.53
2019-02-25T09:55:55.891Z,9.90
2019-02-25T09:58:22.606Z,10.63
2019-02-25T10:00:49.322Z,9.83
2019-02-25T10:03:16.029Z,10.20
2019-02-25T10:05:42.727Z,10.20
2019-02-25T10:08:09.464Z,7.90
2019-02-25T10:10:36.163Z,10.70
2019-02-25T10:13:02.921Z,8.07
2019-02-25T10:15:29.651Z,8.13
2019-02-25T10:17:56.335Z,9.23
2019-02-25T10:20:23.499Z,12.73
2019-02-25T10:22:50.202Z,6.67
2019-02-25T10:25:16.897Z,9.40
2019-02-25T10:27:44.012Z,9.20
2019-02-25T10:30:11.021Z,7.83
2019-02-25T10:32:37.840Z,9.23
2019-02-25T10:35:06.346Z,8.53
2019-02-25T10:37:34.203Z,10.07
2019-02-25T10:40:01.477Z,7.77
2019-02-25T10:42:29.506Z,8.17
2019-02-25T10:44:56.864Z,7.70
2019-02-25T10:47:23.676Z,7.80
2019-02-25T10:49:50.379Z,7.33
2019-02-25T10:52:17.369Z,7.67
2019-02-25T10:54:44.399Z,7.17
2019-02-25T10:57:15.200Z,7.00
2019-02-25T10:59:42.012Z,9.97
2019-02-25T11:02:09.510Z,11.57
2019-02-25T11:04:37.518Z,8.53
2019-02-25T11:07:05.626Z,10.63
2019-02-25T11:09:50.775Z,10.97
2019-02-25T11:12:17.586Z,6.27
2019-02-25T11:14:44.287Z,8.30
2019-02-25T11:17:10.999Z,9.10
2019-02-25T11:19:37.832Z,7.33
2019-02-25T11:22:05.514Z,6.43
2019-02-25T11:24:33.211Z,6.50
2019-02-25T11:27:01.122Z,6.63
2019-02-25T11:29:28.537Z,7.53
2019-02-25T11:31:55.659Z,9.07
2019-02-25T11:34:22.572Z,6.37
2019-02-25T11:36:50.828Z,8.27
2019-02-25T11:39:19.200Z,6.77
2019-02-25T11:41:45.911Z,9.83
2019-02-25T11:44:12.617Z,6.83
2019-02-25T11:46:39.639Z,8.30
2019-02-25T11:49:06.716Z,7.23
2019-02-25T11:51:33.495Z,9.23
2019-02-25T11:54:00.209Z,8.70
2019-02-25T11:56:26.920Z,10.50
2019-02-25T11:58:53.633Z,8.93
2019-02-25T12:01:20.352Z,9.60
2019-02-25T12:03:47.052Z,7.20
2019-02-25T12:06:13.758Z,7.00
2019-02-25T12:08:40.516Z,8.23
2019-02-25T12:11:08.685Z,10.00
2019-02-25T12:13:35.740Z,10.50
2019-02-25T12:16:02.531Z,7.77
2019-02-25T12:18:29.239Z,7.20
2019-02-25T12:20:55.945Z,8.77
2019-02-25T12:23:22.639Z,8.37
2019-02-25T12:25:49.759Z,9.27
2019-02-25T12:28:16.479Z,6.93
2019-02-25T12:30:43.278Z,10.20
2019-02-25T12:33:09.987Z,9.57
2019-02-25T12:35:36.692Z,10.53
2019-02-25T12:38:03.501Z,8.90
2019-02-25T12:40:30.309Z,6.00
2019-02-25T12:42:57.007Z,7.27
2019-02-25T12:45:23.807Z,7.90
2019-02-25T12:47:50.529Z,6.40
2019-02-25T12:50:17.371Z,13.60
2019-02-25T12:52:44.367Z,12.40
2019-02-25T12:55:11.304Z,8.40
2019-02-25T12:57:38.016Z,9.90
2019-02-25T13:00:06.940Z,7.93
2019-02-25T13:02:33.655Z,7.87
2019-02-25T13:05:00.357Z,9.43
2019-02-25T13:07:27.064Z,7.23
2019-02-25T13:09:53.768Z,7.77
2019-02-25T13:12:20.474Z,5.53
2019-02-25T13:14:47.172Z,7.07
2019-02-25T13:17:13.887Z,10.10
2019-02-25T13:19:40.591Z,5.50
2019-02-25T13:22:07.299Z,6.70
2019-02-25T13:24:35.171Z,6.83
2019-02-25T13:27:03.836Z,9.47
2019-02-25T13:29:31.523Z,7.37
2019-02-25T13:31:58.237Z,9.27
2019-02-25T13:34:24.931Z,8.10
2019-02-25T13:36:51.648Z,9.10
2019-02-25T13:39:18.463Z,9.57
2019-02-25T13:41:45.276Z,7.53
2019-02-25T13:44:12.107Z,13.03
2019-02-25T13:46:38.919Z,6.67
2019-02-25T13:49:05.628Z,8.87
2019-02-25T13:51:32.439Z,7.63
2019-02-25T13:53:59.285Z,8.23
2019-02-25T13:56:26.158Z,5.97
2019-02-25T13:58:52.859Z,5.53
2019-02-25T14:01:19.787Z,5.07
2019-02-25T14:03:47.396Z,7.27
2019-02-25T14:06:14.099Z,6.97
2019-02-25T14:08:40.815Z,6.90
2019-02-25T14:11:07.523Z,7.83
2019-02-25T14:13:34.223Z,8.40
2019-02-25T14:16:01.147Z,5.53
2019-02-25T14:18:28.047Z,8.30
2019-02-25T14:20:54.997Z,5.57
2019-02-25T14:23:22.180Z,8.43
2019-02-25T14:25:49.002Z,3.97
2019-02-25T14:28:15.788Z,4.23
2019-02-25T14:30:42.490Z,6.73
2019-02-25T14:33:09.503Z,4.87
2019-02-25T14:35:36.927Z,6.77
2019-02-25T14:38:07.444Z,7.27
2019-02-25T14:40:32.834Z,5.63
2019-02-25T14:43:03.261Z,5.87
2019-02-25T14:45:31.541Z,3.90
2019-02-25T14:47:59.895Z,5.27
2019-02-25T14:50:26.618Z,9.10
2019-02-25T14:52:53.512Z,4.50
2019-02-25T14:55:21.128Z,5.80
2019-02-25T14:57:47.850Z,4.73
2019-02-25T15:00:19.372Z,4.67
2019-02-25T15:02:48.026Z,5.87
2019-02-25T15:05:16.786Z,6.40
2019-02-25T15:07:45.004Z,6.00
2019-02-25T15:10:12.639Z,5.20
2019-02-25T15:12:39.936Z,6.90
2019-02-25T15:15:08.879Z,8.17
2019-02-25T15:17:36.821Z,6.87
2019-02-25T15:20:04.588Z,8.23
2019-02-25T15:22:32.027Z,6.70
2019-02-25T15:24:59.983Z,5.10
2019-02-25T15:27:26.793Z,6.30
2019-02-25T15:29:53.508Z,6.03
2019-02-25T15:32:20.216Z,5.80
2019-02-25T15:34:48.573Z,3.60
2019-02-25T15:37:16.551Z,4.77
2019-02-25T15:39:43.547Z,5.07
2019-02-25T15:42:10.612Z,3.63
2019-02-25T15:44:37.423Z,4.63
2019-02-25T15:47:06.632Z,5.17
2019-02-25T15:49:34.455Z,4.90
2019-02-25T15:52:01.172Z,4.83
2019-02-25T15:54:30.871Z,6.83
2019-02-25T15:56:56.479Z,4.97
2019-02-25T15:59:31.948Z,7.47
2019-02-25T16:01:52.483Z,6.27
2019-02-25T16:04:19.296Z,5.47
2019-02-25T16:06:46.203Z,7.40
2019-02-25T16:09:17.068Z,8.60
2019-02-25T16:11:43.987Z,4.77
2019-02-25T16:14:11.533Z,4.40
2019-02-25T16:16:38.347Z,4.57
2019-02-25T16:19:06.013Z,4.87
2019-02-25T16:21:33.045Z,5.73
2019-02-25T16:24:04.029Z,5.13
2019-02-25T16:26:28.562Z,5.17
2019-02-25T16:28:57.398Z,5.03
2019-02-25T16:31:24.096Z,4.50
2019-02-25T16:33:51.714Z,5.83
2019-02-25T16:36:21.533Z,4.13
2019-02-25T16:38:51.222Z,6.80
2019-02-25T16:41:17.328Z,4.47
2019-02-25T16:43:45.944Z,5.30
2019-02-25T16:46:15.635Z,5.63
2019-02-25T16:48:41.804Z,10.23
2019-02-25T16:51:10.087Z,21.53
2019-02-25T16:53:39.051Z,5.80
2019-02-25T16:56:07.866Z,6.10
2019-02-25T16:58:36.410Z,11.53
2019-02-25T17:01:15.423Z,6.43
2019-02-25T17:03:43.807Z,3.50
2019-02-25T17:06:12.029Z,5.27
2019-02-25T17:08:39.846Z,7.70
2019-02-25T17:11:07.675Z,4.43
2019-02-25T17:13:36.655Z,5.07
2019-02-25T17:16:03.592Z,3.00
2019-02-25T17:18:31.247Z,4.33
2019-02-25T17:20:58.751Z,5.03
2019-02-25T17:23:27.649Z,4.03
2019-02-25T17:25:54.255Z,6.00
2019-02-25T17:28:22.737Z,5.00
2019-02-25T17:30:49.745Z,3.50
2019-02-25T17:33:16.844Z,7.63
2019-02-25T17:35:45.316Z,4.33
2019-02-25T17:38:12.400Z,5.57
2019-02-25T17:40:39.203Z,7.20
2019-02-25T17:43:06.605Z,5.40
2019-02-25T17:45:34.585Z,4.47
2019-02-25T17:48:05.458Z,4.83
2019-02-25T17:50:34.245Z,6.60
2019-02-25T17:53:00.981Z,3.30
2019-02-25T17:55:29.460Z,5.97
2019-02-25T17:57:58.680Z,6.73
2019-02-25T18:00:36.743Z,6.77
2019-02-25T18:03:04.413Z,6.87
2019-02-25T18:05:33.115Z,6.30
2019-02-25T18:07:59.823Z,9.13
2019-02-25T18:10:27.307Z,5.10
2019-02-25T18:12:56.845Z,7.37
2019-02-25T18:15:24.646Z,9.53
2019-02-25T18:17:53.528Z,5.57
2019-02-25T18:20:21.435Z,10.43
2019-02-25T18:22:51.020Z,7.00
2019-02-25T18:25:18.482Z,3.50
2019-02-25T18:27:49.541Z,9.63
2019-02-25T18:30:16.268Z,6.57
2019-02-25T18:32:43.655Z,9.50
2019-02-25T18:35:12.240Z,7.90
2019-02-25T18:37:41.837Z,7.70
2019-02-25T18:40:11.580Z,9.60
2019-02-25T18:42:39.098Z,6.53
2019-02-25T18:45:10.643Z,8.63
2019-02-25T18:47:37.376Z,12.23
2019-02-25T18:50:06.416Z,10.27
2019-02-25T18:52:34.211Z,14.00
2019-02-25T18:55:04.389Z,12.43
2019-02-25T18:57:30.935Z,13.93
2019-02-25T18:59:59.282Z,14.30
2019-02-25T19:02:26.644Z,19.03
2019-02-25T19:04:53.460Z,14.40
2019-02-25T19:07:20.797Z,9.43
2019-02-25T19:09:49.313Z,15.33
2019-02-25T19:12:16.411Z,12.93
2019-02-25T19:14:43.123Z,10.80
2019-02-25T19:17:10.039Z,22.33
2019-02-25T19:19:38.554Z,16.83
2019-02-25T19:22:06.056Z,8.93
2019-02-25T19:24:33.672Z,10.97
2019-02-25T19:27:02.193Z,10.27
2019-02-25T19:29:34.036Z,10.43
2019-02-25T19:32:01.301Z,14.73
2019-02-25T19:34:28.516Z,16.50
2019-02-25T19:36:57.988Z,15.63
2019-02-25T19:39:24.046Z,18.53
2019-02-25T19:41:51.366Z,13.53
2019-02-25T19:44:21.084Z,15.73
2019-02-25T19:46:48.674Z,15.93
2019-02-25T19:49:18.279Z,19.13
2019-02-25T19:51:46.133Z,16.20
2019-02-25T19:54:14.381Z,20.17
2019-02-25T19:56:44.253Z,24.60
2019-02-25T19:59:11.171Z,18.97
2019-02-25T20:01:39.348Z,16.83
2019-02-25T20:04:08.718Z,15.83
2019-02-25T20:06:35.396Z,13.27
2019-02-25T20:09:03.736Z,11.27
2019-02-25T20:11:30.674Z,9.83
2019-02-25T20:14:00.959Z,12.20
2019-02-25T20:16:29.771Z,18.43
2019-02-25T20:18:56.050Z,12.67
2019-02-25T20:21:24.667Z,14.20
2019-02-25T20:23:53.926Z,11.43
2019-02-25T20:26:22.350Z,9.80
2019-02-25T20:28:50.550Z,10.63
2019-02-25T20:31:17.431Z,7.33
2019-02-25T20:33:44.131Z,11.10
2019-02-25T20:36:10.841Z,7.60
2019-02-25T20:38:39.291Z,9.10
2019-02-25T20:41:06.263Z,6.43
2019-02-25T20:43:33.303Z,7.27
2019-02-25T20:46:01.522Z,6.37
2019-02-25T20:48:28.824Z,8.30
2019-02-25T20:50:55.533Z,9.43
2019-02-25T20:53:22.618Z,11.20
2019-02-25T20:55:50.812Z,7.03
2019-02-25T20:58:20.489Z,9.40
2019-02-25T21:00:49.200Z,7.70
2019-02-25T21:03:18.304Z,7.90
2019-02-25T21:05:44.731Z,6.63
2019-02-25T21:08:14.596Z,6.90
2019-02-25T21:10:41.652Z,10.47
2019-02-25T21:13:08.611Z,7.27
2019-02-25T21:15:36.382Z,7.60
2019-02-25T21:18:07.532Z,9.23
2019-02-25T21:20:33.375Z,9.23
2019-02-25T21:23:04.856Z,9.37
2019-02-25T21:25:29.600Z,8.33
2019-02-25T21:27:59.433Z,10.03
2019-02-25T21:30:26.103Z,7.77
2019-02-25T21:32:54.334Z,10.13
2019-02-25T21:35:23.512Z,8.10
2019-02-25T21:37:52.299Z,10.57
2019-02-25T21:40:20.043Z,8.43
2019-02-25T21:42:49.271Z,12.00
2019-02-25T21:45:35.823Z,9.50
2019-02-25T21:48:04.826Z,9.70
2019-02-25T21:50:33.525Z,11.73
2019-02-25T21:52:59.832Z,9.43
2019-02-25T21:55:28.564Z,9.40
2019-02-25T21:57:57.208Z,10.73
2019-02-25T22:00:24.009Z,8.43
2019-02-25T22:02:52.534Z,11.93
2019-02-25T22:05:21.362Z,11.00
2019-02-25T22:07:52.378Z,10.20
2019-02-25T22:10:17.036Z,9.07
2019-02-25T22:12:44.305Z,11.47
2019-02-25T22:15:13.157Z,10.47
2019-02-25T22:17:41.308Z,10.80
2019-02-25T22:20:12.244Z,8.90
2019-02-25T22:22:39.714Z,11.27
2019-02-25T22:25:08.480Z,8.93
2019-02-25T22:27:38.659Z,10.60
2019-02-25T22:30:09.171Z,11.13
2019-02-25T22:32:38.215Z,8.50
2019-02-25T22:35:07.590Z,8.67
2019-02-25T22:37:34.407Z,8.00
2019-02-25T22:40:01.148Z,10.07
2019-02-25T22:42:29.693Z,12.87
2019-02-25T22:44:57.072Z,13.57
2019-02-25T22:47:23.780Z,11.43
2019-02-25T22:49:50.479Z,12.83
2019-02-25T22:52:21.825Z,11.77
2019-02-25T22:54:47.935Z,13.87
2019-02-25T22:57:14.503Z,12.40
2019-02-25T22:59:41.199Z,13.57
2019-02-25T23:02:08.794Z,14.40
2019-02-25T23:04:38.434Z,13.40
2019-02-25T23:07:09.011Z,12.67
2019-02-25T23:09:34.083Z,13.00
2019-02-25T23:12:00.888Z,11.70
2019-02-25T23:14:27.607Z,12.97
2019-02-25T23:16:54.316Z,14.17
2019-02-25T23:19:22.533Z,12.53
2019-02-25T23:21:49.515Z,12.00
2019-02-25T23:24:16.227Z,12.60
2019-02-25T23:26:42.915Z,15.60
2019-02-25T23:29:09.623Z,15.97
2019-02-25T23:31:36.328Z,13.20
2019-02-25T23:34:05.716Z,15.63
2019-02-25T23:36:31.715Z,13.93
2019-02-25T23:38:59.640Z,15.47
2019-02-25T23:41:27.023Z,14.30
2019-02-25T23:43:53.746Z,15.37
2019-02-25T23:46:23.011Z,15.27
2019-02-25T23:48:49.037Z,12.50
2019-02-25T23:51:17.265Z,13.83
2019-02-25T23:53:44.361Z,18.03
2019-02-25T23:56:11.465Z,13.97
2019-02-25T23:58:42.355Z,12.47
